Time;durP1;ratioP1;P1;durP2;ratioP2;P2;SDS_P1;SDS_P2;PMS_P1;PMS_P2;Temp;Humidity;BMP_temperature;BMP_pressure;BME280_temperature;BME280_humidity;BME280_pressure;Samples;Min_cycle;Max_cycle;Signal;HPM_P1;HPM_P2
2021/07/05 00:00:27;;;;;;;;;;;;;;;15.36;75.38;98330.81;2075861;86;20983;-66
2021/07/05 00:03:29;;;;;;;28.20;11.70;;;;;;;15.38;75.27;98335.95;2052398;86;20429;-71
2021/07/05 00:06:30;;;;;;;30.45;12.68;;;;;;;15.38;75.40;98338.59;2073347;86;21033;-73
2021/07/05 00:09:30;;;;;;;30.40;14.18;;;;;;;15.41;75.28;98335.68;2073568;86;21081;-63
2021/07/05 00:12:31;;;;;;;22.35;8.35;;;;;;;15.45;75.58;98328.33;2073449;86;21078;-63
2021/07/05 00:15:32;;;;;;;23.70;9.38;;;;;;;15.42;74.98;98329.43;2073289;86;21018;-63
2021/07/05 00:18:32;;;;;;;22.82;8.65;;;;;;;15.40;75.05;98327.39;2073423;86;21533;-65
2021/07/05 00:21:32;;;;;;;23.40;9.38;;;;;;;15.34;74.90;98327.48;2073467;86;21038;-63
2021/07/05 00:24:33;;;;;;;24.47;10.03;;;;;;;15.30;75.17;98323.44;2073261;86;21081;-63
2021/07/05 00:27:33;;;;;;;23.87;10.60;;;;;;;15.29;75.39;98330.17;2073313;86;21005;-63
2021/07/05 00:30:34;;;;;;;25.27;11.85;;;;;;;15.21;75.40;98324.23;2079649;85;21021;-66
2021/07/05 00:33:36;;;;;;;27.37;13.13;;;;;;;15.18;75.46;98323.19;2082929;85;20990;-63
2021/07/05 00:36:36;;;;;;;26.80;11.48;;;;;;;15.17;75.85;98328.11;2082744;85;21497;-63
2021/07/05 00:39:37;;;;;;;25.08;10.55;;;;;;;15.17;75.81;98330.28;2082784;85;21094;-75
2021/07/05 00:42:37;;;;;;;25.32;10.53;;;;;;;15.15;75.98;98329.56;2082881;85;21038;-71
2021/07/05 00:45:38;;;;;;;27.87;6.87;;;;;;;15.13;75.94;98328.88;2082868;85;21001;-72
2021/07/05 00:48:38;;;;;;;30.08;8.25;;;;;;;15.20;76.12;98331.80;2082761;85;21045;-72
2021/07/05 00:51:44;;;;;;;41.60;6.85;;;;;;;15.05;75.77;98324.25;2082712;85;21101;-72
2021/07/05 00:54:43;;;;;;;28.67;8.38;;;;;;;14.94;75.85;98320.41;2076051;85;21017;-70
2021/07/05 00:57:43;;;;;;;22.02;9.30;;;;;;;14.85;75.88;98323.84;2082680;85;21069;-69
2021/07/05 01:00:43;;;;;;;24.65;10.90;;;;;;;14.73;76.38;98321.78;2082770;85;21537;-68
2021/07/05 01:03:44;;;;;;;27.55;12.88;;;;;;;14.70;76.23;98320.23;2082778;85;20966;-70
2021/07/05 01:06:44;;;;;;;25.92;13.18;;;;;;;14.73;76.22;98321.78;2082727;85;21128;-70
2021/07/05 01:09:45;;;;;;;29.72;14.07;;;;;;;14.73;76.29;98319.14;2082772;85;21006;-66
2021/07/05 01:12:45;;;;;;;30.10;14.43;;;;;;;14.67;76.40;98309.95;2082842;85;20970;-64
2021/07/05 01:15:45;;;;;;;29.57;13.60;;;;;;;14.70;76.48;98315.45;2082437;85;21046;-67
2021/07/05 01:18:46;;;;;;;24.92;10.30;;;;;;;14.72;76.24;98323.59;2082734;85;21013;-69
2021/07/05 01:21:46;;;;;;;21.62;8.60;;;;;;;14.69;76.14;98324.33;2082720;85;21509;-64
2021/07/05 01:24:47;;;;;;;22.60;10.25;;;;;;;14.64;76.34;98319.91;2082743;85;21085;-64
2021/07/05 01:27:47;;;;;;;24.72;11.70;;;;;;;14.57;76.56;98319.59;2082593;85;21037;-66
2021/07/05 01:30:48;;;;;;;26.33;12.15;;;;;;;14.56;76.63;98316.59;2076373;85;21045;-63
2021/07/05 01:33:49;;;;;;;27.50;12.23;;;;;;;14.52;76.52;98317.36;2073313;86;21003;-63
2021/07/05 01:36:50;;;;;;;26.15;12.37;;;;;;;14.45;76.07;98317.53;2073505;86;21033;-64
2021/07/05 01:39:51;;;;;;;24.92;11.83;;;;;;;14.37;76.35;98326.08;2073398;86;21045;-63
2021/07/05 01:42:51;;;;;;;23.42;10.40;;;;;;;14.34;77.04;98325.02;2073387;86;21023;-63
2021/07/05 01:45:52;;;;;;;21.40;6.08;;;;;;;14.34;76.96;98326.83;2073308;86;21022;-65
2021/07/05 01:48:52;;;;;;;22.50;6.10;;;;;;;14.42;76.64;98324.85;2073529;86;21018;-64
2021/07/05 01:51:53;;;;;;;20.30;6.85;;;;;;;14.36;76.24;98316.97;2073290;86;20990;-63
2021/07/05 01:54:53;;;;;;;21.62;8.83;;;;;;;14.24;76.27;98310.94;2073415;86;21485;-63
2021/07/05 01:57:54;;;;;;;13.35;3.95;;;;;;;14.15;76.40;98316.51;2073162;86;21557;-63
2021/07/05 02:00:54;;;;;;;17.75;5.58;;;;;;;14.08;76.92;98322.41;2073259;86;21038;-63
2021/07/05 02:03:55;;;;;;;21.02;5.67;;;;;;;14.02;76.60;98318.48;2073201;86;21030;-63
2021/07/05 02:06:55;;;;;;;26.45;4.85;;;;;;;13.91;76.85;98315.92;2073305;86;20999;-62
2021/07/05 02:09:56;;;;;;;32.67;5.05;;;;;;;13.73;77.25;98323.53;2073269;86;20995;-65
2021/07/05 02:12:56;;;;;;;19.67;4.20;;;;;;;13.59;77.32;98326.83;2073322;84;21014;-63
2021/07/05 02:15:57;;;;;;;17.85;4.60;;;;;;;13.56;77.38;98319.17;2073256;86;21056;-66
2021/07/05 02:18:57;;;;;;;14.10;3.25;;;;;;;13.54;77.40;98320.25;2073371;86;21516;-64
2021/07/05 02:21:58;;;;;;;8.73;3.40;;;;;;;13.53;77.13;98315.45;2073292;86;21021;-64
2021/07/05 02:25:00;;;;;;;11.05;3.60;;;;;;;13.42;76.71;98312.84;2072977;86;21089;-67
2021/07/05 02:28:01;;;;;;;14.20;4.17;;;;;;;13.39;76.65;98319.22;2073469;86;21060;-62
2021/07/05 02:31:01;;;;;;;16.32;5.25;;;;;;;13.33;76.77;98323.16;2073467;86;21544;-64
2021/07/05 02:34:02;;;;;;;19.98;5.80;;;;;;;13.31;77.37;98325.05;2073557;86;20993;-62
2021/07/05 02:37:02;;;;;;;23.55;8.65;;;;;;;13.36;77.64;98333.10;2073399;85;21014;-66
2021/07/05 02:40:02;;;;;;;26.70;9.93;;;;;;;13.30;77.56;98337.03;2073319;86;21057;-63
2021/07/05 02:43:03;;;;;;;25.70;9.25;;;;;;;13.32;77.56;98336.45;2073549;86;21017;-70
2021/07/05 02:46:03;;;;;;;22.70;9.25;;;;;;;13.41;77.63;98337.53;2073540;86;21033;-63
2021/07/05 02:49:04;;;;;;;23.73;10.08;;;;;;;13.45;77.32;98343.74;2073574;86;21011;-62
2021/07/05 02:52:04;;;;;;;23.27;9.70;;;;;;;13.47;77.42;98351.52;2073393;86;21501;-63
2021/07/05 02:55:04;;;;;;;25.15;10.08;;;;;;;13.47;77.33;98344.44;2073421;86;20970;-62
2021/07/05 02:58:05;;;;;;;17.15;5.50;;;;;;;13.50;77.53;98345.53;2073326;86;20999;-64
2021/07/05 03:01:07;;;;;;;17.73;5.30;;;;;;;13.50;77.70;98342.05;2073506;86;21557;-63
2021/07/05 03:04:08;;;;;;;;;;;;;;;13.42;77.61;98340.50;2076029;86;21038;-62
2021/07/05 03:07:08;;;;;;;15.15;5.08;;;;;;;13.33;78.00;98345.54;2073420;85;20097;-62
2021/07/05 03:10:08;;;;;;;13.95;4.70;;;;;;;13.32;78.09;98345.17;2073401;86;21506;-62
2021/07/05 03:13:09;;;;;;;19.70;7.33;;;;;;;13.38;78.29;98349.64;2073075;86;21141;-65
2021/07/05 03:16:10;;;;;;;18.77;6.67;;;;;;;13.53;78.70;98351.02;2073487;86;21021;-62
2021/07/05 03:19:10;;;;;;;19.62;6.58;;;;;;;13.68;78.10;98344.51;2073501;86;21088;-63
2021/07/05 03:22:11;;;;;;;30.70;10.38;;;;;;;13.78;78.18;98346.41;2073631;86;21053;-62
2021/07/05 03:25:12;;;;;;;26.77;10.30;;;;;;;13.85;77.86;98352.85;2073511;86;21050;-62
2021/07/05 03:28:12;;;;;;;27.13;10.53;;;;;;;13.99;77.77;98348.59;2073361;86;21513;-62
2021/07/05 03:31:13;;;;;;;25.50;10.18;;;;;;;14.12;77.48;98345.78;2073148;86;20995;-63
2021/07/05 03:34:13;;;;;;;24.67;9.28;;;;;;;14.31;77.30;98354.30;2073307;86;21057;-63
2021/07/05 03:37:14;;;;;;;32.70;11.43;;;;;;;14.56;77.06;98353.05;2073330;86;21109;-63
2021/07/05 03:40:14;;;;;;;42.65;11.45;;;;;;;14.75;76.76;98355.47;2073052;86;21038;-63
2021/07/05 03:43:15;;;;;;;34.38;12.80;;;;;;;14.74;76.84;98360.42;2073379;84;21026;-69
2021/07/05 03:46:15;;;;;;;30.52;12.65;;;;;;;14.76;76.95;98359.80;2073463;86;21002;-69
2021/07/05 03:49:16;;;;;;;30.40;12.40;;;;;;;14.83;77.12;98361.43;2073404;86;21018;-68
2021/07/05 03:52:16;;;;;;;30.27;13.48;;;;;;;14.97;77.04;98361.08;2073627;86;21002;-72
2021/07/05 03:55:17;;;;;;;36.77;15.13;;;;;;;15.07;77.01;98364.59;2073577;86;21537;-68
2021/07/05 03:58:19;;;;;;;34.10;14.83;;;;;;;15.28;77.15;98367.63;2073506;86;21033;-66
2021/07/05 04:01:20;;;;;;;34.73;14.80;;;;;;;15.40;76.85;98367.88;2073407;86;21084;-63
2021/07/05 04:04:20;;;;;;;35.83;14.87;;;;;;;15.53;76.99;98374.70;2073590;86;21034;-62
2021/07/05 04:07:21;;;;;;;36.23;14.20;;;;;;;15.76;76.64;98381.94;2073347;86;20990;-65
2021/07/05 04:10:21;;;;;;;32.08;14.35;;;;;;;15.80;76.30;98374.58;2073472;86;21516;-63
2021/07/05 04:13:22;;;;;;;38.48;15.72;;;;;;;15.76;76.40;98377.97;2073491;86;21492;-63
2021/07/05 04:16:23;;;;;;;42.17;16.20;;;;;;;15.75;76.67;98385.55;2073311;86;21045;-65
2021/07/05 04:19:23;;;;;;;38.28;14.87;;;;;;;15.83;76.90;98378.27;2073579;86;21049;-65
2021/07/05 04:22:24;;;;;;;35.78;15.70;;;;;;;16.05;77.15;98385.12;2073496;86;21022;-62
2021/07/05 04:25:25;;;;;;;37.42;15.80;;;;;;;16.20;77.00;98388.16;2073534;86;21081;-68
2021/07/05 04:28:26;;;;;;;38.78;17.10;;;;;;;16.36;76.80;98390.23;2073234;86;21033;-63
2021/07/05 04:31:26;;;;;;;36.38;16.65;;;;;;;16.52;76.56;98394.48;2078109;85;21022;-65
2021/07/05 04:34:27;;;;;;;31.57;15.72;;;;;;;16.65;77.05;98392.00;2082920;85;20994;-66
2021/07/05 04:37:27;;;;;;;29.90;14.40;;;;;;;16.75;76.79;98400.28;2082754;85;21037;-67
2021/07/05 04:40:28;;;;;;;30.75;14.43;;;;;;;16.94;76.77;98406.54;2082371;86;21046;-62
2021/07/05 04:43:28;;;;;;;33.60;15.55;;;;;;;17.10;76.45;98405.42;2082805;85;21002;-63
2021/07/05 04:46:29;;;;;;;30.85;14.73;;;;;;;17.28;76.46;98405.97;2082766;85;21545;-65
2021/07/05 04:49:29;;;;;;;29.23;15.40;;;;;;;17.44;76.45;98396.05;2082795;85;21473;-63
2021/07/05 04:52:30;;;;;;;31.77;16.15;;;;;;;17.68;76.22;98396.00;2082633;85;21019;-69
2021/07/05 04:55:30;;;;;;;33.30;17.05;;;;;;;17.79;76.00;98390.48;2082396;85;21033;-62
2021/07/05 04:58:31;;;;;;;37.93;16.97;;;;;;;17.81;76.15;98399.12;2082716;85;21056;-62
2021/07/05 05:01:31;;;;;;;37.25;16.37;;;;;;;17.83;76.27;98389.20;2082755;85;21002;-62
2021/07/05 05:04:32;;;;;;;34.70;16.73;;;;;;;17.84;76.12;98390.85;2082854;85;20990;-66
2021/07/05 05:07:32;;;;;;;35.33;17.55;;;;;;;17.97;76.20;98385.20;2082569;85;21002;-73
2021/07/05 05:10:32;;;;;;;31.15;16.67;;;;;;;18.16;76.14;98386.89;2082769;85;21033;-71
2021/07/05 05:13:33;;;;;;;37.80;17.37;;;;;;;18.35;76.21;98393.84;2082660;85;21489;-70
2021/07/05 05:16:33;;;;;;;35.50;18.98;;;;;;;18.54;75.79;98382.20;2082598;85;21026;-70
2021/07/05 05:19:34;;;;;;;35.80;18.87;;;;;;;18.75;75.76;98391.62;2082628;85;21025;-66
2021/07/05 05:22:34;;;;;;;33.88;18.45;;;;;;;19.00;75.36;98384.67;2082556;85;21056;-69
2021/07/05 05:25:35;;;;;;;34.03;18.92;;;;;;;19.16;75.12;98383.91;2082621;85;21017;-72
2021/07/05 05:28:35;;;;;;;36.35;19.45;;;;;;;19.28;75.08;98383.13;2082894;85;21002;-67
2021/07/05 05:31:36;;;;;;;36.75;19.73;;;;;;;19.46;74.70;98384.36;2082402;85;21053;-70
2021/07/05 05:34:36;;;;;;;36.75;20.80;;;;;;;19.63;74.77;98386.08;2082619;85;21521;-69
2021/07/05 05:37:37;;;;;;;37.78;20.08;;;;;;;19.74;74.72;98382.30;2082589;85;21501;-64
2021/07/05 05:40:39;;;;;;;39.42;20.65;;;;;;;19.84;74.16;98391.47;2103824;84;20952;-64
2021/07/05 05:43:40;;;;;;;36.00;19.37;;;;;;;19.92;74.27;98394.15;2080655;84;21019;-66
2021/07/05 05:46:40;;;;;;;35.85;18.42;;;;;;;19.96;74.18;98391.50;2118032;84;21039;-67
2021/07/05 05:49:40;;;;;;;35.80;19.42;;;;;;;20.05;74.01;98395.81;2118021;84;21105;-65
2021/07/05 05:52:41;;;;;;;34.73;19.17;;;;;;;20.05;73.85;98391.83;2118050;84;21628;-66
2021/07/05 05:55:46;;;;;;;34.17;17.87;;;;;;;20.58;74.23;98392.84;2118222;84;21090;-69
2021/07/05 05:58:44;;;;;;;32.83;18.55;;;;;;;21.14;73.06;98391.58;2086670;84;21042;-63
2021/07/05 06:01:49;;;;;;;29.32;17.40;;;;;;;21.66;72.92;98386.72;2083092;85;21003;-64
2021/07/05 06:04:47;;;;;;;32.35;18.17;;;;;;;22.14;71.75;98381.56;2073441;84;21580;-64
2021/07/05 06:07:50;;;;;;;30.33;15.67;;;;;;;22.59;70.81;98387.56;2118273;84;21018;-64
2021/07/05 06:10:50;;;;;;;27.27;14.73;;;;;;;22.92;69.17;98373.88;2077067;84;21533;-64
2021/07/05 06:13:51;;;;;;;26.30;14.90;;;;;;;23.10;68.51;98377.50;2083315;85;21034;-65
2021/07/05 06:16:51;;;;;;;25.47;14.03;;;;;;;23.36;68.17;98373.05;2083177;85;21620;-65
2021/07/05 06:19:53;;;;;;;28.15;14.60;;;;;;;23.65;66.99;98379.36;2082759;85;21155;-64
2021/07/05 06:22:56;;;;;;;26.27;13.57;;;;;;;23.89;67.29;98377.36;2102433;84;21021;-64
2021/07/05 06:25:56;;;;;;;24.05;12.37;;;;;;;24.13;65.49;98383.68;2073305;85;20996;-68
2021/07/05 06:28:57;;;;;;;27.50;13.37;;;;;;;24.24;64.81;98376.99;2092039;85;21451;-68
2021/07/05 06:31:58;;;;;;;25.47;12.50;;;;;;;24.29;64.93;98373.73;2109149;83;21565;-69
2021/07/05 06:34:58;;;;;;;22.27;11.00;;;;;;;24.48;64.71;98381.61;2096196;84;20983;-65
2021/07/05 06:37:58;;;;;;;24.17;10.47;;;;;;;24.56;62.75;98381.47;2098253;84;21015;-67
2021/07/05 06:40:59;;;;;;;22.93;11.00;;;;;;;24.67;62.79;98381.49;2105823;83;20952;-65
2021/07/05 06:43:59;;;;;;;25.87;12.07;;;;;;;24.91;63.03;98381.53;2142627;83;20974;-64
2021/07/05 06:47:00;;;;;;;24.63;12.20;;;;;;;25.23;62.77;98378.72;2108055;83;21038;-66
2021/07/05 06:50:01;;;;;;;23.60;12.17;;;;;;;25.63;62.87;98374.57;2106488;84;21039;-66
2021/07/05 06:53:02;;;;;;;23.18;11.35;;;;;;;25.99;62.11;98374.76;2135705;83;20990;-69
2021/07/05 06:56:03;;;;;;;21.67;10.57;;;;;;;26.27;60.74;98370.06;2154348;83;20987;-72
2021/07/05 06:59:03;;;;;;;21.47;9.97;;;;;;;26.40;58.59;98365.20;2097172;83;20984;-71
2021/07/05 07:02:04;;;;;;;20.50;9.60;;;;;;;26.45;58.26;98357.89;2108664;84;21006;-71
2021/07/05 07:05:05;;;;;;;20.13;8.90;;;;;;;26.30;57.08;98365.33;2079099;84;21015;-71
2021/07/05 07:08:06;;;;;;;20.80;9.08;;;;;;;26.15;56.17;98367.70;2073612;86;21062;-72
2021/07/05 07:11:07;;;;;;;21.47;9.90;;;;;;;26.14;56.98;98363.34;2073695;86;21561;-71
2021/07/05 07:14:07;;;;;;;20.73;8.90;;;;;;;26.53;56.91;98361.69;2073734;86;20979;-70
2021/07/05 07:17:15;;;;;;;23.47;9.47;;;;;;;26.76;56.07;98365.31;2101699;84;21003;-70
2021/07/05 07:20:12;;;;;;;21.07;8.10;;;;;;;26.87;54.49;98364.38;2064352;84;21051;-70
2021/07/05 07:23:13;;;;;;;21.87;8.60;;;;;;;26.88;53.20;98364.67;2104245;84;20954;-71
2021/07/05 07:26:13;;;;;;;25.12;9.73;;;;;;;26.85;53.76;98364.59;2094738;85;21531;-70
2021/07/05 07:29:14;;;;;;;18.97;7.27;;;;;;;27.07;53.28;98367.84;2094864;85;21076;-72
2021/07/05 07:32:20;;;;;;;21.12;9.33;;;;;;;27.33;53.56;98358.55;2094320;85;21064;-70
2021/07/05 07:35:19;;;;;;;23.55;9.15;;;;;;;27.70;51.11;98365.53;2096665;85;21044;-72
2021/07/05 07:38:20;;;;;;;18.70;7.92;;;;;;;27.57;50.08;98361.04;2094642;85;20997;-65
2021/07/05 07:41:22;;;;;;;20.08;8.10;;;;;;;27.41;50.32;98354.28;2094295;85;21107;-65
2021/07/05 07:44:23;;;;;;;19.05;8.23;;;;;;;27.47;49.96;98347.53;2094721;85;21065;-66
2021/07/05 07:47:24;;;;;;;18.87;7.80;;;;;;;27.59;49.02;98347.67;2094816;85;20989;-66
2021/07/05 07:50:24;;;;;;;18.70;7.67;;;;;;;27.60;49.57;98334.52;2087523;84;20967;-65
2021/07/05 07:53:25;;;;;;;18.60;7.67;;;;;;;27.77;48.40;98332.64;2108445;84;20984;-72
2021/07/05 07:56:29;;;;;;;18.77;7.75;;;;;;;27.60;47.70;98338.56;2108017;84;21541;-72
2021/07/05 07:59:29;;;;;;;18.90;7.40;;;;;;;27.92;50.07;98342.61;2075258;84;21497;-65
2021/07/05 08:02:30;;;;;;;17.62;6.87;;;;;;;28.45;47.86;98344.63;2073651;86;21007;-65
2021/07/05 08:05:30;;;;;;;18.40;6.17;;;;;;;28.54;47.66;98340.59;2102428;84;21573;-65
2021/07/05 08:08:32;;;;;;;19.63;6.37;;;;;;;28.90;44.49;98347.64;2097940;84;21680;-70
2021/07/05 08:11:32;;;;;;;19.30;6.22;;;;;;;28.69;44.77;98341.10;2089941;84;21544;-71
2021/07/05 08:14:33;;;;;;;11.90;5.10;;;;;;;28.84;42.35;98346.66;2090476;84;20995;-66
2021/07/05 08:17:33;;;;;;;15.78;5.72;;;;;;;28.83;42.56;98345.84;2092319;84;21018;-66
2021/07/05 08:20:36;;;;;;;17.40;6.03;;;;;;;28.88;43.77;98332.18;2090236;84;20960;-65
2021/07/05 08:23:37;;;;;;;17.25;6.45;;;;;;;29.06;42.49;98340.28;2092073;84;21570;-72
2021/07/05 08:26:37;;;;;;;17.17;5.90;;;;;;;28.95;42.83;98339.68;2089473;84;20992;-67
2021/07/05 08:29:38;;;;;;;18.17;6.30;;;;;;;28.94;40.35;98346.15;2091103;84;21006;-66
2021/07/05 08:32:38;;;;;;;17.50;6.20;;;;;;;28.62;40.05;98342.20;2089077;83;21066;-65
2021/07/05 08:35:39;;;;;;;17.15;6.17;;;;;;;28.37;41.45;98333.58;2073400;86;21593;-67
2021/07/05 08:38:39;;;;;;;16.10;5.63;;;;;;;28.02;39.95;98330.03;2073444;86;21050;-67
2021/07/05 08:41:40;;;;;;;16.93;6.80;;;;;;;27.29;40.64;98328.53;2073154;86;20971;-65
2021/07/05 08:44:41;;;;;;;17.07;5.73;;;;;;;27.74;41.67;98321.80;2079227;84;21118;-71
2021/07/05 08:47:41;;;;;;;13.57;5.67;;;;;;;28.17;41.66;98321.61;2086900;84;20976;-68
2021/07/05 08:50:43;;;;;;;18.30;5.67;;;;;;;28.35;39.97;98319.50;2082871;84;20995;-64
2021/07/05 08:53:43;;;;;;;14.13;5.47;;;;;;;28.44;37.45;98322.20;2108490;84;21055;-71
2021/07/05 08:56:45;;;;;;;14.40;5.50;;;;;;;28.44;38.15;98325.44;2108385;84;21031;-70
2021/07/05 08:59:46;;;;;;;15.13;5.33;;;;;;;28.28;38.48;98320.09;2108232;84;21107;-73
2021/07/05 09:02:46;;;;;;;15.83;5.37;;;;;;;27.92;38.01;98315.66;2106706;84;21031;-74
2021/07/05 09:05:48;;;;;;;15.20;5.73;;;;;;;28.30;38.12;98321.52;2108670;84;21000;-78
2021/07/05 09:08:48;;;;;;;15.68;5.75;;;;;;;28.68;39.58;98320.55;2108346;84;20971;-73
2021/07/05 09:11:49;;;;;;;17.43;6.10;;;;;;;29.12;34.31;98321.01;2108582;84;21024;-72
2021/07/05 09:14:49;;;;;;;80.20;8.57;;;;;;;29.12;33.66;98326.41;2108454;84;20999;-73
2021/07/05 09:17:50;;;;;;;15.80;6.07;;;;;;;29.20;35.65;98313.42;2108125;83;21701;-73
2021/07/05 09:20:50;;;;;;;15.87;5.60;;;;;;;29.38;34.99;98312.61;2106809;84;21068;-74
2021/07/05 09:23:51;;;;;;;14.70;6.17;;;;;;;29.41;35.88;98336.16;2106321;84;21043;-75
2021/07/05 09:26:53;;;;;;;14.97;6.27;;;;;;;29.38;35.87;98326.13;2105595;84;21633;-66
2021/07/05 09:30:01;;;;;;;31.68;8.33;;;;;;;29.33;35.83;98323.27;2107760;84;21028;-71
2021/07/05 09:33:01;;;;;;;18.10;6.53;;;;;;;29.12;36.63;98323.70;2108010;83;21063;-71
2021/07/05 09:36:02;;;;;;;18.87;6.27;;;;;;;29.27;36.61;98327.42;2108483;84;20999;-70
2021/07/05 09:39:02;;;;;;;18.13;6.23;;;;;;;29.18;35.40;98333.09;2108460;84;20948;-72
2021/07/05 09:42:03;;;;;;;21.97;6.30;;;;;;;29.36;35.98;98334.14;2108442;84;21011;-68
2021/07/05 09:45:04;;;;;;;16.15;6.10;;;;;;;29.47;34.00;98331.21;2108405;84;21035;-68
2021/07/05 09:48:04;;;;;;;15.67;6.07;;;;;;;29.61;35.47;98333.19;2108478;84;21043;-69
2021/07/05 09:51:05;;;;;;;13.60;5.57;;;;;;;30.05;35.52;98329.23;2092009;84;22369;-67
2021/07/05 09:54:05;;;;;;;15.50;5.67;;;;;;;30.58;33.75;98331.59;2108390;84;21031;-66
2021/07/05 09:57:24;;;;;;;13.32;5.30;;;;;;;30.75;35.37;98328.19;2076040;84;21023;-67
2021/07/05 10:00:08;;;;;;;11.50;4.90;;;;;;;31.03;34.28;98336.11;2052588;86;21558;-67
2021/07/05 10:03:09;;;;;;;15.72;5.87;;;;;;;31.08;30.97;98345.71;2073523;86;21139;-67
2021/07/05 10:06:10;;;;;;;14.30;5.33;;;;;;;30.39;31.56;98344.93;2073485;86;21574;-66
2021/07/05 10:09:11;;;;;;;14.00;5.28;;;;;;;30.47;32.78;98343.78;2104699;84;21045;-68
2021/07/05 10:12:11;;;;;;;14.10;5.35;;;;;;;30.81;33.08;98334.00;2108438;84;21062;-67
2021/07/05 10:15:12;;;;;;;15.03;5.27;;;;;;;31.06;30.48;98336.98;2108393;84;21008;-72
2021/07/05 10:18:13;;;;;;;;;;;;;;;31.32;33.12;98342.41;2110815;84;21263;-74
2021/07/05 10:21:14;;;;;;;14.57;5.47;;;;;;;31.55;31.93;98336.08;2108525;84;20170;-75
2021/07/05 10:24:15;;;;;;;13.32;5.00;;;;;;;31.47;31.37;98331.05;2108287;84;21055;-69
2021/07/05 10:27:15;;;;;;;11.38;4.83;;;;;;;31.26;31.63;98326.59;2108305;84;21007;-68
2021/07/05 10:30:16;;;;;;;14.53;5.20;;;;;;;31.29;31.10;98337.45;2108412;84;21038;-67
2021/07/05 10:33:16;;;;;;;14.47;5.28;;;;;;;31.39;30.31;98324.64;2108206;83;21023;-67
2021/07/05 10:36:17;;;;;;;15.10;5.50;;;;;;;31.42;30.57;98318.73;2108287;84;21027;-67
2021/07/05 10:39:18;;;;;;;16.83;6.03;;;;;;;31.65;29.79;98328.71;2108518;84;21491;-67
2021/07/05 10:42:19;;;;;;;13.13;5.12;;;;;;;31.59;29.87;98331.02;2108314;84;21040;-67
2021/07/05 10:45:19;;;;;;;13.45;5.17;;;;;;;31.52;29.54;98324.89;2135970;83;20983;-67
2021/07/05 10:48:20;;;;;;;15.03;5.35;;;;;;;31.17;29.19;98323.14;2144189;83;20999;-67
2021/07/05 10:51:21;;;;;;;;;;;;;;;30.97;30.62;98321.61;2146773;83;21098;-67
2021/07/05 10:54:22;;;;;;;13.60;5.30;;;;;;;31.42;30.04;98319.58;2144640;83;20132;-67
2021/07/05 10:57:22;;;;;;;14.20;5.40;;;;;;;31.35;31.11;98317.55;2122746;83;21005;-68
2021/07/05 11:00:23;;;;;;;14.18;4.97;;;;;;;31.59;30.42;98315.60;2094579;85;20989;-67
2021/07/05 11:03:24;;;;;;;12.18;4.83;;;;;;;31.72;29.36;98322.61;2094629;84;21001;-70
2021/07/05 11:06:24;;;;;;;12.20;5.03;;;;;;;31.19;28.58;98318.30;2094692;84;21001;-67
2021/07/05 11:09:25;;;;;;;16.23;5.03;;;;;;;30.35;30.23;98323.45;2094730;85;20992;-70
2021/07/05 11:12:26;;;;;;;14.47;5.10;;;;;;;30.80;30.68;98316.11;2094635;85;21025;-73
2021/07/05 11:15:26;;;;;;;9.73;4.10;;;;;;;31.31;29.76;98315.03;2094839;85;20976;-73
2021/07/05 11:18:26;;;;;;;11.40;4.43;;;;;;;31.21;27.01;98318.89;2094591;85;21531;-76
2021/07/05 11:21:27;;;;;;;11.15;4.53;;;;;;;31.05;26.88;98324.53;2094336;85;21354;-76
2021/07/05 11:24:28;;;;;;;11.03;4.53;;;;;;;31.44;27.97;98314.73;2094673;85;20997;-74
2021/07/05 11:27:29;;;;;;;11.80;4.25;;;;;;;31.77;26.63;98317.27;2094352;85;21029;-74
2021/07/05 11:33:37;;;;;;;12.05;4.37;;;;;;;32.45;28.40;98314.58;2073214;84;21063;-71
2021/07/05 11:36:38;;;;;;;15.88;4.75;;;;;;;32.95;28.26;98316.13;2108362;84;21550;-68
2021/07/05 11:39:39;;;;;;;13.55;4.58;;;;;;;33.61;28.80;98313.37;2108290;84;21537;-69
2021/07/05 11:42:40;;;;;;;;;;;;;;;33.96;26.95;98308.00;2110889;84;21011;-77
2021/07/05 11:45:41;;;;;;;27.75;6.62;;;;;;;34.06;26.67;98311.34;2139877;83;20191;-68
2021/07/05 11:48:42;;;;;;;;;;;;;;;33.98;26.42;98303.14;2146829;83;21015;-66
2021/07/05 11:51:44;;;;;;;13.33;5.10;;;;;;;32.99;26.34;98318.08;2144111;83;20160;-67
2021/07/05 11:54:45;;;;;;;13.50;4.62;;;;;;;31.69;27.63;98323.06;2144278;83;21540;-67
2021/07/05 11:57:46;;;;;;;16.90;5.15;;;;;;;30.47;29.57;98315.38;2144332;83;21529;-67
2021/07/05 12:00:47;;;;;;;14.63;5.03;;;;;;;29.92;30.85;98317.81;2102789;83;21035;-67
2021/07/05 12:03:48;;;;;;;12.43;5.10;;;;;;;30.35;30.72;98310.75;2107301;83;21047;-66
2021/07/05 12:06:51;;;;;;;14.55;5.08;;;;;;;29.83;31.26;98316.79;2144265;82;21038;-66
2021/07/05 12:09:52;;;;;;;13.85;5.25;;;;;;;29.62;30.90;98312.69;2117293;83;21521;-66
2021/07/05 12:12:52;;;;;;;13.22;4.95;;;;;;;29.75;30.19;98317.62;2108207;84;21114;-66
2021/07/05 12:15:53;;;;;;;15.40;5.10;;;;;;;29.59;30.66;98312.34;2098839;83;20984;-67
2021/07/05 12:18:56;;;;;;;17.20;4.93;;;;;;;29.54;31.33;98310.34;2102177;84;21015;-66
2021/07/05 12:21:56;;;;;;;15.38;5.50;;;;;;;29.61;31.76;98306.17;2091725;84;21270;-66
2021/07/05 12:24:57;;;;;;;13.38;5.20;;;;;;;29.77;30.97;98301.98;2073686;86;21004;-74
2021/07/05 12:27:57;;;;;;;15.65;5.08;;;;;;;30.26;31.38;98300.51;2073597;85;21066;-71
2021/07/05 12:30:59;;;;;;;27.65;6.62;;;;;;;30.33;31.19;98296.65;2073536;86;21054;-66
2021/07/05 12:34:02;;;;;;;18.50;5.47;;;;;;;30.47;31.40;98297.79;2073535;84;21502;-66
2021/07/05 12:37:02;;;;;;;13.90;4.95;;;;;;;30.84;31.47;98296.98;2052664;86;21011;-66
2021/07/05 12:40:02;;;;;;;13.37;4.87;;;;;;;31.27;30.98;98295.71;2073776;86;21565;-71
2021/07/05 12:43:04;;;;;;;17.92;5.00;;;;;;;31.50;29.53;98303.45;2073870;86;21550;-68
2021/07/05 12:46:05;;;;;;;15.45;5.28;;;;;;;31.84;28.62;98304.08;2080374;84;20990;-70
2021/07/05 12:49:06;;;;;;;13.68;4.42;;;;;;;32.12;29.21;98301.84;2102050;84;21054;-67
2021/07/05 12:52:06;;;;;;;16.00;4.80;;;;;;;32.25;27.94;98292.06;2091736;84;21047;-73
2021/07/05 12:55:07;;;;;;;;;;;;;;;32.02;27.58;98290.28;2094952;84;21058;-73
2021/07/05 12:58:08;;;;;;;28.70;6.73;;;;;;;31.26;28.02;98300.02;2075388;84;20423;-71
2021/07/05 13:01:08;;;;;;;14.23;5.03;;;;;;;30.60;29.45;98302.95;2094311;84;20996;-71
2021/07/05 13:04:10;;;;;;;12.65;4.80;;;;;;;30.08;30.43;98296.85;2107963;84;21043;-71
2021/07/05 13:07:12;;;;;;;14.68;5.40;;;;;;;30.57;30.09;98296.15;2108125;84;21719;-75
2021/07/05 13:10:13;;;;;;;13.00;4.92;;;;;;;31.00;30.10;98294.09;2108285;84;21062;-66
2021/07/05 13:13:13;;;;;;;16.17;5.20;;;;;;;31.42;27.92;98302.48;2103620;84;20979;-69
2021/07/05 13:16:14;;;;;;;16.27;5.37;;;;;;;31.59;29.18;98302.56;2095713;84;21711;-70
2021/07/05 13:19:15;;;;;;;19.75;5.15;;;;;;;31.78;26.58;98307.26;2098362;84;20988;-69
2021/07/05 13:22:16;;;;;;;13.75;5.00;;;;;;;31.21;27.64;98304.00;2073624;86;21041;-67
2021/07/05 13:25:17;;;;;;;12.35;5.20;;;;;;;31.33;28.41;98303.41;2073410;86;20995;-69
2021/07/05 13:28:18;;;;;;;19.77;5.95;;;;;;;31.65;28.78;98300.26;2073664;86;21562;-69
2021/07/05 13:31:19;;;;;;;19.27;5.17;;;;;;;31.79;29.02;98308.87;2082347;84;21034;-70
2021/07/05 13:34:21;;;;;;;36.53;7.72;;;;;;;31.53;28.90;98312.45;2108046;83;21565;-69
2021/07/05 13:37:25;;;;;;;19.57;6.10;;;;;;;30.81;29.21;98323.71;2089471;84;21071;-68
2021/07/05 13:40:25;;;;;;;28.00;6.50;;;;;;;30.26;30.02;98325.69;2047590;86;20987;-70
2021/07/05 13:43:25;;;;;;;34.57;8.20;;;;;;;29.96;30.79;98329.81;2093232;84;21063;-71
2021/07/05 13:46:26;;;;;;;25.72;7.08;;;;;;;29.51;31.13;98327.82;2108634;84;21625;-66
2021/07/05 13:49:27;;;;;;;18.13;5.87;;;;;;;29.08;31.41;98328.75;2108898;84;21514;-66
2021/07/05 13:52:29;;;;;;;27.20;6.72;;;;;;;28.89;33.37;98331.95;2081074;84;21067;-67
2021/07/05 13:55:30;;;;;;;17.23;5.67;;;;;;;28.72;33.54;98332.25;2108598;84;21554;-67
2021/07/05 13:58:30;;;;;;;15.17;5.47;;;;;;;28.63;33.11;98331.71;2107673;84;21341;-67
2021/07/05 14:01:30;;;;;;;26.17;6.57;;;;;;;28.68;33.41;98325.14;2107944;84;21111;-67